Aérodrome :
LOGIN :

S'inscrire | Disclaimer

   EN    FR    IT 

 










Légende :    VFR   VFR Marginal   IFR   IFR Intensif   IFR Très Intensif
Visi : 
Plafond : 
>= 8 km
>= 3000ft
5 à 8 km
1000 à 3000 ft
1500m à 5 km
500 à 1000 ft
800 à 1500m
200 à 500 ft
< 800m
< 200 ft
Symboles :   Orages  Brouillard  Fortes neiges  Fortes précipitations  Vent > 20 kt
SIGMETs :   Divers  Orages  Givrage  Turbulence  Onde Orograph.  Cendres Volcan.






- Altitude de l'aérodrome : 231 ft
- Code IATA : N/A


EGSY - MOD Saint Athan

DERNIER METAR :
  • 141520Z AUTO 25016KT 9999 SCT025/// 11/05 Q1022

METARs EXPIRÉS :
  • 141450Z 25015KT 9999 FEW028 11/05 Q1022
  • 141420Z 25016KT 9999 SCT028 12/06 Q1023
  • 141350Z 26014KT 230V290 9999 SCT030 12/05 Q1023
  • 141320Z 27015KT 9999 FEW024 SCT030 12/04 Q1023
  • 141250Z 28014KT 9999 FEW024 SCT043 11/04 Q1024
  • 141220Z 26013KT 230V290 9999 FEW024 SCT035 12/05 Q1024
  • 141150Z 24013KT 9999 FEW024 SCT032 11/05 Q1025
  • 141120Z 25011KT 9999 SCT027 BKN045 12/05 Q1025
  • 141050Z 24010KT 190V280 9999 SCT024 12/05 Q1025

TAF TAF EGSY
Valide du 14 à 15h jusqu'au 15 à 00h UTC


141356Z 1415/1424 28008KT 9999 SCT025
TEMPO 1422/1424 25018G28KT



MET'MAP, la Météo Aéronautique d'un coup d'oeil ! - Copyright ORBIFLY Décembre 2007 - Disclaimer

ORBIFLY MET'MAP TEAM :

Programmation & Développement : Alexandra Zaïnal
Sur une idée originale de : Baudouin d'Aumeries
Soutien technique & logistique : Manuel Goepfert
Assistance : Marc-Olivier Méhu




SOURCES & CREDITS :

   NOAA